createdAt,value
2022-09-01T00:00:04.395Z,20.60
2022-09-01T00:02:34.631Z,20.62
2022-09-01T00:05:02.188Z,20.59
2022-09-01T00:07:30.875Z,20.51
2022-09-01T00:09:59.573Z,20.45
2022-09-01T00:12:27.605Z,20.36
2022-09-01T00:14:54.822Z,20.34
2022-09-01T00:17:22.511Z,20.37
2022-09-01T00:19:49.704Z,20.38
2022-09-01T00:22:17.149Z,20.30
2022-09-01T00:24:44.539Z,20.26
2022-09-01T00:27:11.551Z,20.29
2022-09-01T00:29:44.003Z,20.27
2022-09-01T00:32:11.882Z,20.19
2022-09-01T00:34:39.660Z,20.15
2022-09-01T00:37:07.021Z,20.18
2022-09-01T00:39:34.045Z,20.19
2022-09-01T00:42:01.099Z,20.10
2022-09-01T00:44:29.511Z,20.09
2022-09-01T00:46:59.905Z,20.04
2022-09-01T00:49:35.010Z,20.07
2022-09-01T00:52:10.518Z,19.97
2022-09-01T00:54:46.370Z,19.98
2022-09-01T00:57:15.720Z,20.00
2022-09-01T00:59:59.163Z,19.86
2022-09-01T01:02:26.192Z,19.90
2022-09-01T01:04:55.156Z,19.80
2022-09-01T01:07:23.346Z,19.74
2022-09-01T01:09:51.630Z,19.77
2022-09-01T01:12:19.075Z,19.74
2022-09-01T01:14:50.691Z,19.77
2022-09-01T01:17:23.409Z,19.75
2022-09-01T01:20:13.080Z,19.73
2022-09-01T01:23:09.401Z,19.68
2022-09-01T01:25:49.028Z,19.62
2022-09-01T01:28:31.294Z,19.66
2022-09-01T01:31:13.606Z,19.64
2022-09-01T01:33:44.793Z,19.65
2022-09-01T01:36:32.486Z,19.44
2022-09-01T01:39:04.162Z,19.52
2022-09-01T01:41:33.676Z,19.54
2022-09-01T01:44:05.850Z,19.47
2022-09-01T01:46:34.932Z,19.49
2022-09-01T01:49:03.029Z,19.47
2022-09-01T01:51:32.216Z,19.36
2022-09-01T01:54:05.883Z,19.42
2022-09-01T01:56:38.234Z,19.36
2022-09-01T01:59:06.468Z,19.31
2022-09-01T02:01:35.287Z,19.31
2022-09-01T02:04:04.480Z,19.37
2022-09-01T02:06:34.838Z,19.37
2022-09-01T02:09:04.009Z,19.36
2022-09-01T02:11:34.395Z,19.33
2022-09-01T02:14:01.617Z,19.29
2022-09-01T02:16:30.805Z,19.30
2022-09-01T02:18:58.043Z,19.28
2022-09-01T02:21:27.350Z,19.27
2022-09-01T02:24:03.760Z,19.27
2022-09-01T02:26:35.040Z,19.22
2022-09-01T02:29:05.402Z,19.25
2022-09-01T02:31:40.988Z,19.22
2022-09-01T02:34:10.973Z,19.26
2022-09-01T02:36:42.700Z,19.22
2022-09-01T02:39:11.677Z,19.18
2022-09-01T02:41:39.660Z,19.14
2022-09-01T02:44:12.099Z,19.14
2022-09-01T02:46:44.867Z,19.07
2022-09-01T02:49:19.977Z,19.12
2022-09-01T02:51:54.310Z,19.14
2022-09-01T02:54:24.841Z,19.16
2022-09-01T02:56:54.963Z,19.15
2022-09-01T02:59:27.732Z,19.08
2022-09-01T03:01:59.046Z,19.16
2022-09-01T03:04:27.611Z,19.04
2022-09-01T03:06:55.330Z,19.00
2022-09-01T03:09:23.164Z,19.00
2022-09-01T03:11:53.207Z,18.98
2022-09-01T03:14:22.579Z,18.99
2022-09-01T03:16:49.627Z,18.94
2022-09-01T03:19:19.316Z,18.94
2022-09-01T03:21:47.674Z,18.92
2022-09-01T03:24:19.214Z,18.91
2022-09-01T03:26:49.970Z,18.90
2022-09-01T03:29:19.376Z,18.86
2022-09-01T03:31:47.188Z,18.84
2022-09-01T03:34:16.667Z,18.83
2022-09-01T03:36:51.139Z,18.80
2022-09-01T03:39:28.481Z,18.78
2022-09-01T03:41:56.983Z,18.79
2022-09-01T03:44:24.051Z,18.75
2022-09-01T03:46:52.097Z,18.77
2022-09-01T03:49:25.286Z,18.77
2022-09-01T03:51:55.545Z,18.72
2022-09-01T03:54:28.114Z,18.68
2022-09-01T03:56:55.608Z,18.61
2022-09-01T03:59:24.816Z,18.58
2022-09-01T04:01:52.215Z,18.62
2022-09-01T04:04:19.269Z,18.57
2022-09-01T04:06:47.098Z,18.50
2022-09-01T04:09:15.175Z,18.48
2022-09-01T04:11:46.509Z,18.52
2022-09-01T04:14:15.732Z,18.39
2022-09-01T04:17:02.925Z,18.31
2022-09-01T04:19:37.113Z,18.33
2022-09-01T04:22:05.440Z,18.32
2022-09-01T04:24:46.618Z,18.24
2022-09-01T04:27:18.473Z,18.19
2022-09-01T04:29:47.144Z,18.20
2022-09-01T04:32:16.124Z,18.17
2022-09-01T04:34:49.081Z,18.15
2022-09-01T04:37:19.899Z,18.03
2022-09-01T04:39:56.202Z,18.06
2022-09-01T04:42:27.529Z,18.03
2022-09-01T04:44:57.862Z,18.04
2022-09-01T04:47:35.972Z,17.97
2022-09-01T04:50:14.738Z,17.91
2022-09-01T04:53:03.738Z,17.91
2022-09-01T04:55:33.728Z,17.88
2022-09-01T04:58:08.335Z,17.91
2022-09-01T05:00:37.692Z,17.95
2022-09-01T05:03:05.193Z,17.92
2022-09-01T05:05:51.356Z,17.89
2022-09-01T05:08:24.292Z,17.88
2022-09-01T05:10:55.980Z,17.90
2022-09-01T05:13:41.562Z,17.90
2022-09-01T05:16:13.456Z,17.84
2022-09-01T05:18:48.018Z,17.81
2022-09-01T05:21:20.197Z,17.85
2022-09-01T05:23:49.578Z,17.77
2022-09-01T05:26:20.854Z,17.68
2022-09-01T05:28:55.936Z,17.72
2022-09-01T05:31:25.426Z,17.79
2022-09-01T05:33:52.574Z,17.63
2022-09-01T05:36:23.303Z,17.67
2022-09-01T05:38:52.551Z,17.64
2022-09-01T05:41:21.288Z,17.63
2022-09-01T05:43:56.390Z,17.66
2022-09-01T05:46:28.682Z,17.67
2022-09-01T05:48:57.780Z,17.71
2022-09-01T05:51:44.031Z,17.73
2022-09-01T05:54:13.177Z,17.73
2022-09-01T05:56:44.107Z,17.70
2022-09-01T05:59:23.837Z,17.75
2022-09-01T06:01:54.513Z,17.78
2022-09-01T06:04:23.428Z,17.75
2022-09-01T06:07:11.758Z,17.75
2022-09-01T06:09:47.965Z,17.69
2022-09-01T06:12:19.036Z,17.73
2022-09-01T06:14:48.694Z,17.81
2022-09-01T06:17:23.433Z,17.73
2022-09-01T06:19:52.935Z,17.80
2022-09-01T06:22:20.901Z,17.73
2022-09-01T06:24:53.768Z,17.79
2022-09-01T06:27:23.260Z,17.68
2022-09-01T06:29:53.898Z,17.68
2022-09-01T06:32:21.486Z,17.68
2022-09-01T06:34:51.481Z,17.76
2022-09-01T06:37:23.252Z,17.77
2022-09-01T06:39:54.199Z,17.72
2022-09-01T06:42:23.664Z,17.65
2022-09-01T06:44:56.460Z,17.67
2022-09-01T06:47:24.548Z,17.69
2022-09-01T06:49:57.332Z,17.74
2022-09-01T06:52:26.535Z,17.74
2022-09-01T06:54:55.019Z,17.73
2022-09-01T07:00:19.145Z,17.75
2022-09-01T07:02:53.614Z,17.82
2022-09-01T07:06:01.310Z,17.90
2022-09-01T07:14:27.083Z,17.87
2022-09-01T07:17:23.318Z,17.95
2022-09-01T07:19:48.888Z,17.99
2022-09-01T07:25:12.071Z,17.90
2022-09-01T07:28:00.538Z,17.95
2022-09-01T07:30:29.256Z,17.95
2022-09-01T07:32:56.302Z,17.92
2022-09-01T07:35:25.483Z,17.74
2022-09-01T07:43:51.374Z,17.71
2022-09-01T07:46:37.439Z,17.73
2022-09-01T07:51:57.244Z,17.68
2022-09-01T07:54:27.567Z,17.73
2022-09-01T07:56:56.679Z,17.68
2022-09-01T07:59:28.163Z,17.70
2022-09-01T08:02:13.594Z,17.84
2022-09-01T08:04:42.706Z,17.78
2022-09-01T08:07:15.536Z,17.87
2022-09-01T08:09:44.827Z,17.83
2022-09-01T08:12:13.861Z,17.83
2022-09-01T08:14:47.768Z,17.82
2022-09-01T08:17:17.984Z,17.67
2022-09-01T08:20:07.380Z,17.77
2022-09-01T08:22:59.625Z,17.73
2022-09-01T08:25:33.698Z,17.81
2022-09-01T08:28:02.770Z,17.87
2022-09-01T08:30:32.696Z,17.86
2022-09-01T08:33:11.184Z,17.79
2022-09-01T08:35:43.979Z,17.91
2022-09-01T08:38:11.308Z,17.94
2022-09-01T08:40:39.139Z,17.91
2022-09-01T08:43:46.674Z,17.96
2022-09-01T08:46:29.838Z,17.96
2022-09-01T08:52:15.247Z,18.17
2022-09-01T08:54:54.181Z,18.17
2022-09-01T08:57:26.651Z,18.12
2022-09-01T09:00:15.770Z,18.12
2022-09-01T09:02:58.864Z,18.24
2022-09-01T09:05:38.673Z,18.40
2022-09-01T09:08:37.285Z,18.21
2022-09-01T09:11:18.503Z,18.31
2022-09-01T09:14:07.558Z,18.31
2022-09-01T09:16:48.099Z,18.24
2022-09-01T09:19:25.810Z,18.23
2022-09-01T09:21:56.327Z,18.17
2022-09-01T09:24:50.529Z,18.19
2022-09-01T09:27:23.718Z,18.11
2022-09-01T09:29:53.715Z,18.06
2022-09-01T09:32:35.235Z,17.95
2022-09-01T09:35:39.206Z,17.80
2022-09-01T09:38:29.498Z,17.84
2022-09-01T09:41:15.899Z,17.67
2022-09-01T09:43:47.553Z,17.75
2022-09-01T09:46:25.714Z,17.77
2022-09-01T09:49:34.708Z,17.73
2022-09-01T09:52:03.780Z,17.65
2022-09-01T09:54:33.719Z,17.66
2022-09-01T09:57:14.088Z,17.65
2022-09-01T10:00:00.341Z,17.67
2022-09-01T10:02:32.175Z,17.72
2022-09-01T10:05:20.438Z,17.62
2022-09-01T10:07:47.736Z,17.66
2022-09-01T10:10:40.720Z,17.67
2022-09-01T10:13:14.209Z,17.71
2022-09-01T10:15:49.180Z,17.64
2022-09-01T10:18:28.793Z,17.55
2022-09-01T10:21:04.479Z,17.67
2022-09-01T10:23:35.006Z,17.72
2022-09-01T10:26:11.799Z,17.96
2022-09-01T10:28:58.303Z,18.04
2022-09-01T10:31:29.489Z,18.27
2022-09-01T10:34:05.575Z,18.43
2022-09-01T10:36:34.136Z,18.58
2022-09-01T10:39:06.096Z,18.67
2022-09-01T10:42:07.614Z,18.88
2022-09-01T10:44:39.145Z,18.97
2022-09-01T10:47:38.233Z,18.84
2022-09-01T10:50:25.220Z,18.85
2022-09-01T10:52:58.910Z,18.79
2022-09-01T10:56:20.069Z,18.71
2022-09-01T11:01:49.452Z,18.58
2022-09-01T11:04:19.900Z,18.66
2022-09-01T11:07:44.250Z,18.68
2022-09-01T11:10:36.586Z,18.54
2022-09-01T11:13:03.616Z,18.56
2022-09-01T11:15:40.723Z,18.58
2022-09-01T11:18:13.362Z,18.63
2022-09-01T11:20:45.819Z,18.39
2022-09-01T11:23:27.763Z,18.43
2022-09-01T11:28:45.277Z,18.20
2022-09-01T11:31:20.737Z,18.30
2022-09-01T11:34:00.217Z,18.28
2022-09-01T11:36:35.558Z,18.32
2022-09-01T11:39:30.290Z,18.37
2022-09-01T11:42:11.193Z,18.35
2022-09-01T11:44:49.212Z,18.33
2022-09-01T11:47:21.310Z,18.31
2022-09-01T11:49:58.614Z,18.25
2022-09-01T11:52:30.985Z,18.22
2022-09-01T11:54:59.557Z,18.32
2022-09-01T11:57:28.567Z,18.35
2022-09-01T11:59:57.814Z,18.27
2022-09-01T12:02:29.993Z,18.19
2022-09-01T12:04:57.961Z,18.15
2022-09-01T12:07:47.687Z,18.14
2022-09-01T12:10:36.384Z,18.08
2022-09-01T12:13:09.825Z,18.08
2022-09-01T12:16:00.560Z,18.00
2022-09-01T12:18:32.398Z,17.87
2022-09-01T12:21:02.423Z,17.78
2022-09-01T12:23:46.236Z,17.81
2022-09-01T12:26:25.220Z,17.86
2022-09-01T12:28:53.408Z,17.89
2022-09-01T12:31:24.025Z,17.97
2022-09-01T12:33:53.041Z,17.89
2022-09-01T12:36:25.417Z,18.02
2022-09-01T12:38:57.932Z,18.05
2022-09-01T12:41:33.335Z,18.16
2022-09-01T12:44:26.709Z,18.22
2022-09-01T12:46:54.232Z,18.24
2022-09-01T12:49:35.220Z,18.36
2022-09-01T13:08:01.084Z,18.05
2022-09-01T13:10:33.105Z,18.00
2022-09-01T13:13:02.324Z,18.04
2022-09-01T13:15:29.306Z,17.98
2022-09-01T13:17:56.593Z,17.98
2022-09-01T13:20:24.238Z,17.83
2022-09-01T13:22:51.617Z,17.74
2022-09-01T13:25:21.120Z,17.74
2022-09-01T13:27:48.871Z,17.77
2022-09-01T13:30:18.834Z,17.80
2022-09-01T13:35:34.653Z,17.93
2022-09-01T13:38:01.830Z,17.98
2022-09-01T13:40:28.933Z,17.97
2022-09-01T13:42:55.984Z,17.96
2022-09-01T13:45:27.925Z,18.09
2022-09-01T13:53:30.799Z,18.11
2022-09-01T13:58:45.214Z,18.16
2022-09-01T14:01:16.750Z,18.26
2022-09-01T14:03:45.452Z,18.33
2022-09-01T14:06:14.082Z,18.36
2022-09-01T14:08:41.354Z,18.38
2022-09-01T14:11:09.178Z,18.46
2022-09-01T14:13:38.190Z,18.51
2022-09-01T14:16:11.163Z,18.50
2022-09-01T14:18:38.949Z,18.50
2022-09-01T14:21:12.899Z,18.37
2022-09-01T14:23:42.911Z,18.48
2022-09-01T14:26:15.285Z,18.39
2022-09-01T14:28:46.067Z,18.42
2022-09-01T14:31:15.905Z,18.48
2022-09-01T14:33:44.280Z,18.58
2022-09-01T14:36:22.220Z,18.48
2022-09-01T14:38:50.465Z,18.46
2022-09-01T14:41:23.567Z,18.52
2022-09-01T14:43:54.295Z,18.54
2022-09-01T14:46:21.402Z,18.53
2022-09-01T14:48:49.055Z,18.65
2022-09-01T14:51:23.781Z,18.76
2022-09-01T14:53:52.711Z,18.85
2022-09-01T14:56:20.603Z,18.66
2022-09-01T14:58:48.858Z,18.75
2022-09-01T15:01:34.202Z,18.71
2022-09-01T15:04:02.317Z,18.67
2022-09-01T15:06:29.425Z,18.74
2022-09-01T15:08:56.551Z,18.70
2022-09-01T15:11:23.621Z,18.81
2022-09-01T15:13:52.527Z,18.89
2022-09-01T15:16:22.783Z,18.83
2022-09-01T15:18:50.596Z,18.72
2022-09-01T15:21:34.025Z,18.69
2022-09-01T15:24:02.138Z,18.52
2022-09-01T15:26:29.960Z,18.52
2022-09-01T15:28:59.764Z,18.55
2022-09-01T15:31:32.798Z,18.47
2022-09-01T15:34:04.646Z,18.43
2022-09-01T15:36:34.670Z,18.46
2022-09-01T15:39:02.042Z,18.53
2022-09-01T15:41:31.826Z,18.61
2022-09-01T15:43:59.328Z,18.61
2022-09-01T15:46:32.206Z,18.56
2022-09-01T15:49:00.438Z,18.57
2022-09-01T15:51:41.566Z,18.50
2022-09-01T15:54:10.645Z,18.56
2022-09-01T15:56:37.955Z,18.50
2022-09-01T15:59:07.259Z,18.55
2022-09-01T16:01:37.700Z,18.54
2022-09-01T16:04:07.873Z,18.47
2022-09-01T16:06:35.487Z,18.47
2022-09-01T16:09:02.708Z,18.46
2022-09-01T16:11:29.789Z,18.34
2022-09-01T16:13:57.232Z,18.31
2022-09-01T16:16:48.901Z,18.27
2022-09-01T16:19:44.550Z,18.28
2022-09-01T16:22:23.674Z,18.28
2022-09-01T16:24:54.566Z,18.25
2022-09-01T16:27:27.757Z,18.22
2022-09-01T16:30:04.298Z,18.19
2022-09-01T16:32:33.367Z,18.17
2022-09-01T16:35:01.843Z,18.21
2022-09-01T16:37:39.879Z,18.29
2022-09-01T16:40:15.878Z,18.15
2022-09-01T16:43:03.121Z,18.06
2022-09-01T16:45:43.084Z,18.08
2022-09-01T16:48:21.197Z,18.05
2022-09-01T16:51:13.903Z,17.95
2022-09-01T16:53:40.972Z,17.94
2022-09-01T16:56:31.586Z,17.96
2022-09-01T16:59:03.449Z,17.91
2022-09-01T17:01:37.330Z,17.86
2022-09-01T17:04:10.807Z,17.82
2022-09-01T17:07:03.692Z,17.73
2022-09-01T17:09:53.311Z,17.59
2022-09-01T17:12:49.652Z,17.59
2022-09-01T17:15:30.785Z,17.50
2022-09-01T17:18:22.018Z,17.56
2022-09-01T17:20:58.102Z,17.54
2022-09-01T17:23:30.039Z,17.49
2022-09-01T17:26:03.345Z,17.49
2022-09-01T17:28:34.871Z,17.33
2022-09-01T17:31:14.672Z,17.38
2022-09-01T17:33:56.968Z,17.34
2022-09-01T17:36:44.584Z,17.24
2022-09-01T17:39:38.380Z,17.29
2022-09-01T17:42:22.012Z,17.29
2022-09-01T17:44:58.964Z,17.26
2022-09-01T17:47:53.101Z,17.23
2022-09-01T17:50:35.304Z,17.30
2022-09-01T17:53:11.065Z,17.28
2022-09-01T17:55:59.080Z,17.36
2022-09-01T17:58:37.907Z,17.30
2022-09-01T18:01:19.224Z,17.24
2022-09-01T18:04:38.762Z,17.22
2022-09-01T18:07:33.615Z,17.25
2022-09-01T18:10:05.024Z,17.27
2022-09-01T18:12:38.070Z,17.26
2022-09-01T18:15:10.236Z,17.26
2022-09-01T18:17:50.682Z,17.26
2022-09-01T18:20:23.766Z,17.32
2022-09-01T18:23:03.707Z,17.30
2022-09-01T18:25:48.260Z,17.29
2022-09-01T18:28:15.789Z,17.31
2022-09-01T18:31:11.733Z,17.26
2022-09-01T18:33:38.799Z,17.29
2022-09-01T18:36:41.488Z,17.20
2022-09-01T18:39:20.717Z,17.19
2022-09-01T18:42:29.533Z,17.18
2022-09-01T18:45:18.561Z,17.08
2022-09-01T18:48:04.481Z,17.05
2022-09-01T18:51:07.487Z,17.07
2022-09-01T18:54:11.884Z,17.03
2022-09-01T18:56:49.403Z,17.01
2022-09-01T19:00:03.071Z,17.02
2022-09-01T19:02:54.979Z,17.02
2022-09-01T19:05:52.890Z,17.05
2022-09-01T19:08:58.965Z,17.06
2022-09-01T19:11:35.129Z,17.08
2022-09-01T19:14:29.540Z,17.04
2022-09-01T19:17:09.112Z,17.01
2022-09-01T19:19:49.415Z,16.98
2022-09-01T19:22:21.655Z,16.91
2022-09-01T19:25:20.141Z,16.91
2022-09-01T19:28:33.974Z,16.90
2022-09-01T19:31:13.775Z,16.91
2022-09-01T19:33:45.664Z,16.87
2022-09-01T19:36:20.728Z,16.92
2022-09-01T19:38:48.622Z,16.90
2022-09-01T19:41:24.054Z,16.93
2022-09-01T19:44:05.840Z,17.00
2022-09-01T19:46:47.384Z,17.00
2022-09-01T19:49:22.852Z,17.01
2022-09-01T19:52:06.078Z,17.00
2022-09-01T19:54:44.963Z,17.01
2022-09-01T19:57:23.011Z,17.00
2022-09-01T20:00:00.698Z,17.02
2022-09-01T20:02:47.270Z,17.00
2022-09-01T20:05:27.419Z,16.99
2022-09-01T20:08:13.678Z,16.94
2022-09-01T20:11:13.557Z,16.91
2022-09-01T20:13:48.170Z,16.91
2022-09-01T20:16:36.285Z,16.89
2022-09-01T20:19:16.254Z,16.82
2022-09-01T20:21:46.578Z,16.86
2022-09-01T20:24:24.548Z,16.91
2022-09-01T20:26:58.735Z,16.94
2022-09-01T20:29:33.014Z,16.88
2022-09-01T20:32:04.282Z,16.75
2022-09-01T20:34:37.288Z,16.76
2022-09-01T20:37:26.832Z,16.78
2022-09-01T20:40:05.240Z,16.77
2022-09-01T20:43:03.167Z,16.80
2022-09-01T20:45:32.189Z,16.82
2022-09-01T20:48:07.274Z,16.76
2022-09-01T20:50:43.581Z,16.71
2022-09-01T20:53:18.746Z,16.70
2022-09-01T20:55:51.456Z,16.55
2022-09-01T20:58:36.978Z,16.62
2022-09-01T21:01:15.553Z,16.66
2022-09-01T21:04:08.534Z,16.67
2022-09-01T21:06:54.451Z,16.64
2022-09-01T21:09:55.586Z,16.65
2022-09-01T21:12:47.179Z,16.64
2022-09-01T21:15:14.408Z,16.69
2022-09-01T21:17:47.188Z,16.69
2022-09-01T21:20:41.321Z,16.66
2022-09-01T21:23:08.493Z,16.69
2022-09-01T21:25:35.573Z,16.70
2022-09-01T21:28:06.888Z,16.58
2022-09-01T21:30:36.196Z,16.53
2022-09-01T21:33:04.686Z,16.43
2022-09-01T21:35:31.947Z,16.48
2022-09-01T21:37:58.910Z,16.44
2022-09-01T21:40:26.726Z,16.39
2022-09-01T21:43:21.747Z,16.35
2022-09-01T21:45:49.391Z,16.30
2022-09-01T21:48:16.937Z,16.26
2022-09-01T21:50:44.204Z,16.30
2022-09-01T21:53:14.164Z,16.30
2022-09-01T21:55:41.277Z,16.27
2022-09-01T21:58:09.256Z,16.27
2022-09-01T22:00:43.497Z,16.29
2022-09-01T22:03:12.011Z,16.32
2022-09-01T22:05:42.095Z,16.23
2022-09-01T22:08:12.445Z,16.16
2022-09-01T22:10:50.723Z,16.06
2022-09-01T22:13:19.268Z,16.14
2022-09-01T22:15:50.168Z,16.17
2022-09-01T22:18:19.007Z,16.15
2022-09-01T22:20:46.852Z,16.18
2022-09-01T22:23:15.030Z,16.22
2022-09-01T22:25:44.940Z,16.20
2022-09-01T22:28:12.114Z,16.25
2022-09-01T22:30:48.087Z,16.30
2022-09-01T22:33:16.135Z,16.23
2022-09-01T22:35:45.642Z,16.26
2022-09-01T22:38:13.199Z,16.31
2022-09-01T22:40:55.310Z,16.24
2022-09-01T22:43:24.507Z,16.24
2022-09-01T22:45:52.364Z,16.27
2022-09-01T22:48:25.352Z,16.25
2022-09-01T22:50:53.283Z,16.20
2022-09-01T22:53:21.968Z,16.22
2022-09-01T22:55:51.199Z,16.24
2022-09-01T22:58:19.465Z,16.25
2022-09-01T23:00:53.163Z,16.25
2022-09-01T23:03:21.255Z,16.29
2022-09-01T23:05:50.225Z,16.31
2022-09-01T23:08:18.265Z,16.27
2022-09-01T23:10:45.188Z,16.25
2022-09-01T23:13:12.258Z,16.29
2022-09-01T23:15:39.256Z,16.29
2022-09-01T23:18:06.478Z,16.22
2022-09-01T23:20:33.619Z,16.28
2022-09-01T23:23:00.740Z,16.25
2022-09-01T23:25:28.364Z,16.29
2022-09-01T23:27:55.640Z,16.24
2022-09-01T23:30:22.797Z,16.20
2022-09-01T23:32:49.788Z,16.25
2022-09-01T23:35:16.862Z,16.21
2022-09-01T23:37:44.240Z,16.12
2022-09-01T23:40:11.436Z,16.15
2022-09-01T23:42:38.578Z,16.19
2022-09-01T23:45:06.285Z,16.18
2022-09-01T23:47:33.334Z,16.16
2022-09-01T23:50:00.354Z,16.11
2022-09-01T23:52:27.372Z,16.17
2022-09-01T23:54:54.810Z,16.14
2022-09-01T23:57:21.886Z,16.12
2022-09-01T23:59:49.284Z,16.19
